createdAt,value
2022-11-03T00:00:49.311Z,1.33
2022-11-03T00:03:34.339Z,1.60
2022-11-03T00:06:19.267Z,1.70
2022-11-03T00:09:07.014Z,1.50
2022-11-03T00:11:52.000Z,2.08
2022-11-03T00:14:37.122Z,1.50
2022-11-03T00:17:21.929Z,1.83
2022-11-03T00:20:07.917Z,1.73
2022-11-03T00:22:52.679Z,1.33
2022-11-03T00:25:37.809Z,1.50
2022-11-03T00:28:22.774Z,1.25
2022-11-03T00:31:10.840Z,1.40
2022-11-03T00:33:56.348Z,1.23
2022-11-03T00:36:43.490Z,1.27
2022-11-03T00:39:28.313Z,1.27
2022-11-03T00:42:13.416Z,1.50
2022-11-03T00:44:58.454Z,1.30
2022-11-03T00:48:03.558Z,1.50
2022-11-03T00:50:48.463Z,1.30
2022-11-03T00:53:38.659Z,1.13
2022-11-03T00:56:26.356Z,1.48
2022-11-03T00:59:11.564Z,1.48
2022-11-03T01:01:56.888Z,1.30
2022-11-03T01:05:00.570Z,1.20
2022-11-03T01:07:45.723Z,1.10
2022-11-03T01:10:30.385Z,1.50
2022-11-03T01:13:15.227Z,1.30
2022-11-03T01:16:00.341Z,1.10
2022-11-03T01:18:45.586Z,1.20
2022-11-03T01:21:30.979Z,1.40
2022-11-03T01:24:16.113Z,1.50
2022-11-03T01:27:01.057Z,1.40
2022-11-03T01:29:45.977Z,1.03
2022-11-03T01:32:30.731Z,1.30
2022-11-03T01:35:15.609Z,1.05
2022-11-03T01:38:00.785Z,0.98
2022-11-03T01:40:45.932Z,1.27
2022-11-03T01:43:32.281Z,1.17
2022-11-03T01:46:25.916Z,1.33
2022-11-03T01:49:19.915Z,1.20
2022-11-03T01:52:20.765Z,1.20
2022-11-03T01:55:16.186Z,1.00
2022-11-03T01:58:13.782Z,1.27
2022-11-03T02:01:00.531Z,1.00
2022-11-03T02:03:51.304Z,1.50
2022-11-03T02:06:37.007Z,1.30
2022-11-03T02:09:22.290Z,1.20
2022-11-03T02:12:08.740Z,1.00
2022-11-03T02:14:58.269Z,0.93
2022-11-03T02:17:46.497Z,1.67
2022-11-03T02:20:32.859Z,1.52
2022-11-03T02:23:30.198Z,1.40
2022-11-03T02:26:15.690Z,1.43
2022-11-03T02:29:00.890Z,1.35
2022-11-03T02:31:58.704Z,1.55
2022-11-03T02:35:17.406Z,1.40
2022-11-03T02:38:08.907Z,1.08
2022-11-03T02:40:57.029Z,1.60
2022-11-03T02:43:42.995Z,1.40
2022-11-03T02:46:30.790Z,1.40
2022-11-03T02:49:15.833Z,1.30
2022-11-03T02:52:02.397Z,1.38
2022-11-03T02:54:47.881Z,1.67
2022-11-03T02:57:39.359Z,1.40
2022-11-03T03:00:24.679Z,1.58
2022-11-03T03:03:32.380Z,1.30
2022-11-03T03:06:33.961Z,1.52
2022-11-03T03:09:25.614Z,1.30
2022-11-03T03:12:13.860Z,1.40
2022-11-03T03:15:01.106Z,1.20
2022-11-03T03:18:05.312Z,1.23
2022-11-03T03:20:56.469Z,1.30
2022-11-03T03:23:50.432Z,1.17
2022-11-03T03:26:40.984Z,1.50
2022-11-03T03:29:36.567Z,1.20
2022-11-03T03:32:25.778Z,1.80
2022-11-03T03:35:17.066Z,1.80
2022-11-03T03:38:08.770Z,1.67
2022-11-03T03:40:57.258Z,1.30
2022-11-03T03:43:42.262Z,1.65
2022-11-03T03:46:32.131Z,1.30
2022-11-03T03:49:17.312Z,1.73
2022-11-03T03:52:03.646Z,1.37
2022-11-03T03:54:48.709Z,1.40
2022-11-03T03:57:33.946Z,1.50
2022-11-03T04:00:19.312Z,1.50
2022-11-03T04:03:04.264Z,1.65
2022-11-03T04:05:50.068Z,1.87
2022-11-03T04:08:35.472Z,1.23
2022-11-03T04:11:39.150Z,1.80
2022-11-03T04:14:42.846Z,1.35
2022-11-03T04:17:49.274Z,1.17
2022-11-03T04:20:52.946Z,1.57
2022-11-03T04:23:38.664Z,1.15
2022-11-03T04:26:23.684Z,1.35
2022-11-03T04:29:09.774Z,1.83
2022-11-03T04:31:54.877Z,1.50
2022-11-03T04:34:41.018Z,1.50
2022-11-03T04:37:28.731Z,1.63
2022-11-03T04:40:16.355Z,1.60
2022-11-03T04:43:04.663Z,1.50
2022-11-03T04:45:49.925Z,1.67
2022-11-03T04:48:35.222Z,1.57
2022-11-03T04:51:24.340Z,1.67
2022-11-03T04:54:23.390Z,1.30
2022-11-03T04:57:12.845Z,1.63
2022-11-03T04:59:57.757Z,1.20
2022-11-03T05:02:44.652Z,1.40
2022-11-03T05:05:29.569Z,1.60
2022-11-03T05:08:17.245Z,1.50
2022-11-03T05:11:13.611Z,1.98
2022-11-03T05:14:02.217Z,1.73
2022-11-03T05:16:48.403Z,1.63
2022-11-03T05:19:38.316Z,1.25
2022-11-03T05:22:26.518Z,1.77
2022-11-03T05:25:42.034Z,1.38
2022-11-03T05:28:30.252Z,1.73
2022-11-03T05:31:22.419Z,1.33
2022-11-03T05:34:30.020Z,2.10
2022-11-03T05:37:30.734Z,1.67
2022-11-03T05:40:24.734Z,1.45
2022-11-03T05:43:14.400Z,1.55
2022-11-03T05:46:02.779Z,1.27
2022-11-03T05:48:49.329Z,1.20
2022-11-03T05:51:37.818Z,1.40
2022-11-03T05:54:27.250Z,1.45
2022-11-03T05:57:14.854Z,1.30
2022-11-03T06:00:00.070Z,1.20
2022-11-03T06:02:46.344Z,1.63
2022-11-03T06:05:32.237Z,1.40
2022-11-03T06:11:25.754Z,1.60
2022-11-03T06:14:25.143Z,1.40
2022-11-03T06:17:23.769Z,1.60
2022-11-03T06:20:18.216Z,1.42
2022-11-03T06:23:03.805Z,1.40
2022-11-03T06:25:51.200Z,1.30
2022-11-03T06:28:39.007Z,1.10
2022-11-03T06:31:28.515Z,1.58
2022-11-03T06:34:22.008Z,1.70
2022-11-03T06:37:20.015Z,1.40
2022-11-03T06:40:33.483Z,1.45
2022-11-03T06:43:25.426Z,1.57
2022-11-03T06:46:24.336Z,1.25
2022-11-03T06:49:28.601Z,1.40
2022-11-03T06:52:23.879Z,1.95
2022-11-03T06:55:13.724Z,1.30
2022-11-03T06:58:32.460Z,1.67
2022-11-03T07:01:32.338Z,1.20
2022-11-03T07:04:29.742Z,1.33
2022-11-03T07:07:14.555Z,1.50
2022-11-03T07:09:59.590Z,1.58
2022-11-03T07:12:45.299Z,1.37
2022-11-03T07:15:33.230Z,1.70
2022-11-03T07:18:29.600Z,1.52
2022-11-03T07:21:42.438Z,1.70
2022-11-03T07:24:30.782Z,1.42
2022-11-03T07:27:35.964Z,2.10
2022-11-03T07:30:24.029Z,1.15
2022-11-03T07:33:15.121Z,1.73
2022-11-03T07:36:16.855Z,1.70
2022-11-03T07:39:02.895Z,1.30
2022-11-03T07:41:48.925Z,1.67
2022-11-03T07:44:34.404Z,1.17
2022-11-03T07:47:21.849Z,1.50
2022-11-03T07:50:14.641Z,1.35
2022-11-03T07:52:59.705Z,2.10
2022-11-03T07:55:46.838Z,1.43
2022-11-03T07:58:39.612Z,1.23
2022-11-03T08:01:25.946Z,1.75
2022-11-03T08:04:20.207Z,0.70
2022-11-03T08:07:05.075Z,1.38
2022-11-03T08:09:51.266Z,1.63
2022-11-03T08:12:36.785Z,0.90
2022-11-03T08:15:21.878Z,1.55
2022-11-03T08:18:06.987Z,1.40
2022-11-03T08:20:52.046Z,1.45
2022-11-03T08:23:37.781Z,0.80
2022-11-03T08:26:22.763Z,0.73
2022-11-03T08:29:07.873Z,0.90
2022-11-03T08:31:54.090Z,1.30
2022-11-03T08:34:38.977Z,1.27
2022-11-03T08:37:23.954Z,1.30
2022-11-03T08:40:09.573Z,1.15
2022-11-03T08:42:54.481Z,1.25
2022-11-03T08:45:39.345Z,0.93
2022-11-03T08:48:28.955Z,1.33
2022-11-03T08:51:15.717Z,1.07
2022-11-03T08:54:00.433Z,1.40
2022-11-03T08:56:46.423Z,1.25
2022-11-03T08:59:31.626Z,0.73
2022-11-03T09:02:16.694Z,1.38
2022-11-03T09:05:01.660Z,1.10
2022-11-03T09:10:51.509Z,1.70
2022-11-03T09:13:36.610Z,1.30
2022-11-03T09:16:21.280Z,1.38
2022-11-03T09:19:06.334Z,1.37
2022-11-03T09:21:52.237Z,1.20
2022-11-03T09:24:37.238Z,1.58
2022-11-03T09:27:22.107Z,1.33
2022-11-03T09:30:13.242Z,1.50
2022-11-03T09:32:58.792Z,1.10
2022-11-03T09:35:43.768Z,1.20
2022-11-03T09:38:28.570Z,1.30
2022-11-03T09:41:26.499Z,1.40
2022-11-03T09:44:20.875Z,1.38
2022-11-03T09:47:06.618Z,1.63
2022-11-03T09:49:52.255Z,1.33
2022-11-03T09:52:37.676Z,1.20
2022-11-03T09:55:27.020Z,2.00
2022-11-03T09:58:17.269Z,1.48
2022-11-03T10:01:03.397Z,0.97
2022-11-03T10:03:48.377Z,1.27
2022-11-03T10:06:33.481Z,1.30
2022-11-03T10:09:20.594Z,1.50
2022-11-03T10:12:09.193Z,1.38
2022-11-03T10:14:54.863Z,1.43
2022-11-03T10:17:40.062Z,1.25
2022-11-03T10:20:25.186Z,1.40
2022-11-03T10:23:10.492Z,1.38
2022-11-03T10:26:08.394Z,1.50
2022-11-03T10:29:03.452Z,1.30
2022-11-03T10:31:51.479Z,1.10
2022-11-03T10:34:39.281Z,1.20
2022-11-03T10:37:26.081Z,1.30
2022-11-03T10:40:47.652Z,1.40
2022-11-03T10:43:33.446Z,1.40
2022-11-03T10:46:44.708Z,1.33
2022-11-03T10:49:30.202Z,1.23
2022-11-03T10:52:23.806Z,1.40
2022-11-03T10:55:08.985Z,1.13
2022-11-03T10:57:58.119Z,5.97
2022-11-03T11:00:42.982Z,1.98
2022-11-03T11:03:27.840Z,1.38
2022-11-03T11:06:21.379Z,1.08
2022-11-03T11:09:09.857Z,0.65
2022-11-03T11:12:06.137Z,1.00
2022-11-03T11:14:57.489Z,1.40
2022-11-03T11:17:45.415Z,1.48
2022-11-03T11:20:34.422Z,1.27
2022-11-03T11:23:28.885Z,1.30
2022-11-03T11:26:30.724Z,1.40
2022-11-03T11:29:15.704Z,1.00
2022-11-03T11:32:50.384Z,1.30
2022-11-03T11:35:59.028Z,1.30
2022-11-03T11:38:48.276Z,1.35
2022-11-03T11:42:11.635Z,1.33
2022-11-03T11:44:58.132Z,1.10
2022-11-03T11:47:48.312Z,1.50
2022-11-03T11:50:33.338Z,1.23
2022-11-03T11:53:25.074Z,1.17
2022-11-03T11:56:18.932Z,1.20
2022-11-03T11:59:03.785Z,1.50
2022-11-03T12:01:51.822Z,1.52
2022-11-03T12:04:36.550Z,1.48
2022-11-03T12:07:35.903Z,1.45
2022-11-03T12:10:28.070Z,1.20
2022-11-03T12:13:35.400Z,1.45
2022-11-03T12:16:36.698Z,1.40
2022-11-03T12:19:43.817Z,1.42
2022-11-03T12:22:29.332Z,1.30
2022-11-03T12:25:34.930Z,1.50
2022-11-03T12:28:34.113Z,1.55
2022-11-03T12:31:19.049Z,1.45
2022-11-03T12:34:04.128Z,1.40
2022-11-03T12:36:54.740Z,1.45
2022-11-03T12:39:40.942Z,1.37
2022-11-03T12:42:25.991Z,2.03
2022-11-03T12:45:13.415Z,1.88
2022-11-03T12:47:58.434Z,1.40
2022-11-03T12:50:43.147Z,1.48
2022-11-03T12:53:27.998Z,1.50
2022-11-03T12:56:14.621Z,1.80
2022-11-03T12:58:59.532Z,1.30
2022-11-03T13:01:44.579Z,1.77
2022-11-03T13:04:29.794Z,1.60
2022-11-03T13:07:14.725Z,1.77
2022-11-03T13:09:59.479Z,1.30
2022-11-03T13:12:45.163Z,1.42
2022-11-03T13:15:30.556Z,2.22
2022-11-03T13:18:15.312Z,1.83
2022-11-03T13:21:00.250Z,1.73
2022-11-03T13:23:46.096Z,1.77
2022-11-03T13:26:30.899Z,1.63
2022-11-03T13:29:15.690Z,1.52
2022-11-03T13:32:00.673Z,1.35
2022-11-03T13:34:45.731Z,1.50
2022-11-03T13:37:30.807Z,1.17
2022-11-03T13:40:35.730Z,1.73
2022-11-03T13:43:21.415Z,1.30
2022-11-03T13:46:06.600Z,2.00
2022-11-03T13:51:56.593Z,1.80
2022-11-03T14:00:51.331Z,1.48
2022-11-03T14:06:41.087Z,1.60
2022-11-03T14:09:26.130Z,1.40
2022-11-03T14:12:29.949Z,1.23
2022-11-03T14:15:15.072Z,1.13
2022-11-03T14:18:00.084Z,1.70
2022-11-03T14:20:45.194Z,1.52
2022-11-03T14:23:29.941Z,1.60
2022-11-03T14:26:23.603Z,1.63
2022-11-03T14:29:19.822Z,2.00
2022-11-03T14:32:05.168Z,1.43
2022-11-03T14:34:49.937Z,1.30
2022-11-03T14:37:34.826Z,1.80
2022-11-03T14:40:38.312Z,1.88
2022-11-03T14:43:23.482Z,2.03
2022-11-03T14:46:08.358Z,1.80
2022-11-03T14:48:54.359Z,1.70
2022-11-03T14:51:39.467Z,1.92
2022-11-03T14:54:24.810Z,1.58
2022-11-03T14:57:09.769Z,1.38
2022-11-03T14:59:54.560Z,1.90
2022-11-03T15:02:39.466Z,2.25
2022-11-03T15:05:43.091Z,1.83
2022-11-03T15:08:29.585Z,2.35
2022-11-03T15:11:14.564Z,2.30
2022-11-03T15:13:59.518Z,2.20
2022-11-03T15:16:45.902Z,1.70
2022-11-03T15:19:30.722Z,1.98
2022-11-03T15:22:15.884Z,1.20
2022-11-03T15:25:18.739Z,0.98
2022-11-03T15:28:06.432Z,0.87
2022-11-03T15:30:51.656Z,1.00
2022-11-03T15:33:36.410Z,0.73
2022-11-03T15:36:22.165Z,0.98
2022-11-03T15:39:07.154Z,1.05
2022-11-03T15:41:52.413Z,0.77
2022-11-03T15:44:37.118Z,0.75
2022-11-03T15:47:21.907Z,1.70
2022-11-03T15:50:07.822Z,1.55
2022-11-03T15:52:53.790Z,1.58
2022-11-03T15:55:38.694Z,1.00
2022-11-03T15:58:23.523Z,1.40
2022-11-03T16:01:08.565Z,1.50
2022-11-03T16:03:53.298Z,1.73
2022-11-03T16:07:07.419Z,2.60
2022-11-03T16:09:43.561Z,2.03
2022-11-03T16:12:30.057Z,1.60
2022-11-03T16:15:14.952Z,1.38
2022-11-03T16:18:02.920Z,1.50
2022-11-03T16:20:48.122Z,2.13
2022-11-03T16:23:33.301Z,1.50
2022-11-03T16:26:21.724Z,1.48
2022-11-03T16:29:06.922Z,2.55
2022-11-03T16:31:51.809Z,2.25
2022-11-03T16:34:36.686Z,1.50
2022-11-03T16:37:21.606Z,0.87
2022-11-03T16:40:06.969Z,1.55
2022-11-03T16:42:51.789Z,2.20
2022-11-03T16:45:38.104Z,1.50
2022-11-03T16:48:23.470Z,2.00
2022-11-03T16:51:08.371Z,2.20
2022-11-03T16:53:54.598Z,1.95
2022-11-03T16:56:39.791Z,2.05
2022-11-03T16:59:26.272Z,1.60
2022-11-03T17:02:16.109Z,2.88
2022-11-03T17:05:01.820Z,1.80
2022-11-03T17:07:52.832Z,2.17
2022-11-03T17:10:38.736Z,2.67
2022-11-03T17:13:23.501Z,5.30
2022-11-03T17:16:08.387Z,6.53
2022-11-03T17:18:53.158Z,5.00
2022-11-03T17:21:38.144Z,3.42
2022-11-03T17:24:22.871Z,4.63
2022-11-03T17:27:27.437Z,3.30
2022-11-03T17:30:18.537Z,3.40
2022-11-03T17:33:09.530Z,2.97
2022-11-03T17:35:54.566Z,3.00
2022-11-03T17:38:39.444Z,2.50
2022-11-03T17:41:24.551Z,2.85
2022-11-03T17:44:11.673Z,2.65
2022-11-03T17:46:56.588Z,2.40
2022-11-03T17:49:42.210Z,1.92
2022-11-03T17:52:30.240Z,2.40
2022-11-03T17:55:29.121Z,2.92
2022-11-03T17:58:13.945Z,3.63
2022-11-03T18:01:01.578Z,2.50
2022-11-03T18:03:46.275Z,2.40
2022-11-03T18:06:31.104Z,2.97
2022-11-03T18:09:16.142Z,3.45
2022-11-03T18:12:20.026Z,3.15
2022-11-03T18:15:14.161Z,3.07
2022-11-03T18:17:59.642Z,2.30
2022-11-03T18:20:53.493Z,4.13
2022-11-03T18:23:38.841Z,3.47
2022-11-03T18:26:26.286Z,3.50
2022-11-03T18:29:11.142Z,3.77
2022-11-03T18:31:56.978Z,3.30
2022-11-03T18:34:41.952Z,3.90
2022-11-03T18:37:27.254Z,3.65
2022-11-03T18:40:13.366Z,3.70
2022-11-03T18:42:58.554Z,2.87
2022-11-03T18:45:43.462Z,2.78
2022-11-03T18:48:28.373Z,3.33
2022-11-03T18:51:13.401Z,2.80
2022-11-03T18:53:58.713Z,2.83
2022-11-03T18:56:44.088Z,3.30
2022-11-03T18:59:32.274Z,4.53
2022-11-03T19:02:22.453Z,6.90
2022-11-03T19:05:12.498Z,3.88
2022-11-03T19:07:58.645Z,5.07
2022-11-03T19:10:43.730Z,4.10
2022-11-03T19:13:34.770Z,4.40
2022-11-03T19:16:25.932Z,3.78
2022-11-03T19:19:12.404Z,3.55
2022-11-03T19:21:57.561Z,4.30
2022-11-03T19:24:43.429Z,2.33
2022-11-03T19:27:31.924Z,3.70
2022-11-03T19:30:19.242Z,4.05
2022-11-03T19:33:04.763Z,3.90
2022-11-03T19:35:50.258Z,3.08
2022-11-03T19:38:35.819Z,3.10
2022-11-03T19:41:53.277Z,3.30
2022-11-03T19:44:38.179Z,3.22
2022-11-03T19:47:28.255Z,4.38
2022-11-03T19:50:24.798Z,3.72
2022-11-03T19:53:14.205Z,3.50
2022-11-03T19:55:59.627Z,3.10
2022-11-03T19:58:44.790Z,4.28
2022-11-03T20:01:29.748Z,4.30
2022-11-03T20:04:14.606Z,3.28
2022-11-03T20:06:59.997Z,4.80
2022-11-03T20:09:44.966Z,4.15
2022-11-03T20:12:30.869Z,4.78
2022-11-03T20:15:19.949Z,4.78
2022-11-03T20:18:06.304Z,3.92
2022-11-03T20:20:51.453Z,3.87
2022-11-03T20:23:39.081Z,4.13
2022-11-03T20:26:28.077Z,4.18
2022-11-03T20:29:14.345Z,3.50
2022-11-03T20:31:59.354Z,3.10
2022-11-03T20:34:46.402Z,3.80
2022-11-03T20:37:31.560Z,4.03
2022-11-03T20:40:20.087Z,3.95
2022-11-03T20:43:05.783Z,5.22
2022-11-03T20:45:50.597Z,4.68
2022-11-03T20:48:35.504Z,6.03
2022-11-03T20:51:22.577Z,5.70
2022-11-03T20:54:15.198Z,5.55
2022-11-03T20:57:00.189Z,5.15
2022-11-03T20:59:45.053Z,4.07
2022-11-03T21:02:30.006Z,4.60
2022-11-03T21:05:15.741Z,4.45
2022-11-03T21:08:00.588Z,4.38
2022-11-03T21:10:45.556Z,4.60
2022-11-03T21:13:30.467Z,4.57
2022-11-03T21:16:33.961Z,4.23
2022-11-03T21:19:40.423Z,4.28
2022-11-03T21:25:40.342Z,5.38
2022-11-03T21:28:25.515Z,4.75
2022-11-03T21:31:13.101Z,4.40
2022-11-03T21:33:58.043Z,3.75
2022-11-03T21:36:42.906Z,3.60
2022-11-03T21:39:29.393Z,2.47
2022-11-03T21:42:34.021Z,2.10
2022-11-03T21:45:20.215Z,2.00
2022-11-03T21:48:24.025Z,2.05
2022-11-03T21:51:09.304Z,1.58
2022-11-03T21:53:53.973Z,1.92
2022-11-03T21:56:38.792Z,1.33
2022-11-03T21:59:23.803Z,1.13
2022-11-03T22:02:11.805Z,1.13
2022-11-03T22:04:57.026Z,1.17
2022-11-03T22:07:41.883Z,1.30
2022-11-03T22:10:26.776Z,1.17
2022-11-03T22:13:12.091Z,1.20
2022-11-03T22:16:15.724Z,1.13
2022-11-03T22:19:19.812Z,1.05
2022-11-03T22:22:24.711Z,0.80
2022-11-03T22:25:28.645Z,1.02
2022-11-03T22:28:15.096Z,1.70
2022-11-03T22:31:23.076Z,1.40
2022-11-03T22:34:27.066Z,1.00
2022-11-03T22:37:12.161Z,0.47
2022-11-03T22:40:15.879Z,0.35
2022-11-03T22:43:19.565Z,0.30
2022-11-03T22:46:05.442Z,0.28
2022-11-03T22:48:50.442Z,0.40
2022-11-03T22:51:35.322Z,0.40
2022-11-03T22:54:20.039Z,0.40
2022-11-03T22:57:05.011Z,0.47
2022-11-03T22:59:49.718Z,0.35
2022-11-03T23:02:34.662Z,0.60
2022-11-03T23:05:19.482Z,0.30
2022-11-03T23:08:04.305Z,0.40
2022-11-03T23:10:49.397Z,0.40
2022-11-03T23:13:34.345Z,0.22
2022-11-03T23:16:23.001Z,0.40
2022-11-03T23:19:33.976Z,0.30
2022-11-03T23:22:19.099Z,0.38
2022-11-03T23:25:04.560Z,0.40
2022-11-03T23:27:49.701Z,0.30
2022-11-03T23:30:34.702Z,0.38
2022-11-03T23:33:19.492Z,0.40
2022-11-03T23:36:06.578Z,0.40
2022-11-03T23:38:51.658Z,0.50
2022-11-03T23:41:36.677Z,0.40
2022-11-03T23:44:21.577Z,0.40
2022-11-03T23:47:26.927Z,0.40
2022-11-03T23:50:11.952Z,0.30
2022-11-03T23:52:56.722Z,0.30
2022-11-03T23:56:01.556Z,0.43
2022-11-03T23:58:50.768Z,0.40
